createdAt,value
2018-02-22T00:00:54.178Z,13.57
2018-02-22T00:03:48.106Z,12.37
2018-02-22T00:06:20.905Z,13.30
2018-02-22T00:09:01.262Z,13.27
2018-02-22T00:11:31.313Z,12.15
2018-02-22T00:14:03.770Z,12.45
2018-02-22T00:16:37.007Z,12.82
2018-02-22T00:19:17.555Z,12.35
2018-02-22T00:21:50.202Z,12.37
2018-02-22T00:24:21.557Z,13.35
2018-02-22T00:26:52.426Z,13.48
2018-02-22T00:29:22.900Z,12.77
2018-02-22T00:31:53.403Z,13.50
2018-02-22T00:34:22.939Z,13.55
2018-02-22T00:36:55.138Z,13.10
2018-02-22T00:39:25.480Z,13.57
2018-02-22T00:42:00.414Z,12.60
2018-02-22T00:44:30.344Z,12.93
2018-02-22T00:47:01.668Z,13.98
2018-02-22T00:49:32.095Z,12.65
2018-02-22T00:52:02.724Z,13.05
2018-02-22T00:54:33.226Z,13.38
2018-02-22T00:57:05.448Z,13.45
2018-02-22T00:59:36.410Z,12.15
2018-02-22T01:02:06.301Z,12.60
2018-02-22T01:04:37.403Z,12.20
2018-02-22T01:07:11.589Z,12.05
2018-02-22T01:09:42.670Z,12.77
2018-02-22T01:12:12.837Z,13.05
2018-02-22T01:14:43.422Z,14.15
2018-02-22T01:17:16.512Z,13.25
2018-02-22T01:19:46.415Z,12.75
2018-02-22T01:22:18.729Z,14.73
2018-02-22T01:24:50.784Z,12.68
2018-02-22T01:27:23.210Z,13.10
2018-02-22T01:29:55.108Z,13.50
2018-02-22T01:32:25.267Z,13.30
2018-02-22T01:34:55.348Z,12.70
2018-02-22T01:37:25.916Z,13.18
2018-02-22T01:39:57.314Z,12.80
2018-02-22T01:42:30.055Z,11.75
2018-02-22T01:45:00.107Z,13.73
2018-02-22T01:47:29.814Z,13.68
2018-02-22T01:50:01.855Z,12.60
2018-02-22T01:52:33.329Z,12.07
2018-02-22T01:55:06.981Z,11.10
2018-02-22T01:57:36.808Z,11.90
2018-02-22T02:00:07.319Z,12.52
2018-02-22T02:02:37.439Z,11.30
2018-02-22T02:07:57.294Z,12.02
2018-02-22T02:10:26.828Z,12.10
2018-02-22T02:12:58.390Z,11.23
2018-02-22T02:15:28.167Z,11.65
2018-02-22T02:17:57.773Z,11.80
2018-02-22T02:20:27.110Z,9.93
2018-02-22T02:22:58.164Z,11.18
2018-02-22T02:25:33.186Z,12.05
2018-02-22T02:28:08.048Z,11.02
2018-02-22T02:30:37.864Z,11.35
2018-02-22T02:33:08.058Z,11.80
2018-02-22T02:35:38.874Z,10.88
2018-02-22T02:38:10.081Z,10.98
2018-02-22T02:40:40.996Z,10.40
2018-02-22T02:43:12.437Z,10.23
2018-02-22T02:45:42.224Z,10.77
2018-02-22T02:48:13.067Z,10.68
2018-02-22T02:50:44.688Z,11.15
2018-02-22T02:53:32.360Z,10.77
2018-02-22T02:56:02.425Z,8.02
2018-02-22T02:58:35.279Z,10.40
2018-02-22T03:01:12.644Z,10.20
2018-02-22T03:03:48.496Z,10.32
2018-02-22T03:06:25.226Z,10.40
2018-02-22T03:08:59.913Z,10.35
2018-02-22T03:11:32.231Z,9.93
2018-02-22T03:14:02.657Z,10.93
2018-02-22T03:16:33.494Z,9.82
2018-02-22T03:19:03.409Z,10.65
2018-02-22T03:21:33.531Z,10.38
2018-02-22T03:24:04.057Z,11.70
2018-02-22T03:26:35.139Z,11.12
2018-02-22T03:29:05.288Z,11.63
2018-02-22T03:31:41.071Z,11.20
2018-02-22T03:34:11.645Z,10.82
2018-02-22T03:36:40.624Z,10.13
2018-02-22T03:39:10.400Z,9.98
2018-02-22T03:41:39.938Z,10.77
2018-02-22T03:44:09.271Z,11.20
2018-02-22T03:47:01.467Z,10.80
2018-02-22T03:49:33.063Z,10.68
2018-02-22T03:52:17.920Z,10.48
2018-02-22T03:54:53.768Z,11.95
2018-02-22T03:57:23.637Z,11.73
2018-02-22T03:59:53.708Z,11.68
2018-02-22T04:02:24.347Z,10.15
2018-02-22T04:04:58.952Z,8.25
2018-02-22T04:07:51.759Z,10.63
2018-02-22T04:10:26.968Z,11.05
2018-02-22T04:13:02.542Z,11.23
2018-02-22T04:18:13.356Z,11.10
2018-02-22T04:20:44.738Z,10.98
2018-02-22T04:23:16.496Z,12.43
2018-02-22T04:25:51.093Z,12.55
2018-02-22T04:28:38.623Z,12.80
2018-02-22T04:31:11.197Z,12.13
2018-02-22T04:33:41.378Z,12.45
2018-02-22T04:36:52.304Z,13.20
2018-02-22T04:39:45.943Z,13.02
2018-02-22T04:42:59.575Z,13.38
2018-02-22T04:45:30.556Z,12.63
2018-02-22T04:51:28.989Z,12.48
2018-02-22T04:54:00.181Z,13.75
2018-02-22T04:56:38.097Z,12.15
2018-02-22T04:59:08.541Z,12.77
2018-02-22T05:01:54.862Z,12.45
2018-02-22T05:04:39.163Z,12.68
2018-02-22T05:07:11.056Z,13.45
2018-02-22T05:09:41.541Z,11.80
2018-02-22T05:12:12.429Z,12.68
2018-02-22T05:14:45.103Z,12.18
2018-02-22T05:17:16.867Z,12.05
2018-02-22T05:19:48.448Z,12.90
2018-02-22T05:22:18.893Z,11.23
2018-02-22T05:24:49.221Z,13.20
2018-02-22T05:27:19.801Z,13.02
2018-02-22T05:29:57.807Z,13.07
2018-02-22T05:32:34.896Z,12.55
2018-02-22T05:35:05.124Z,14.30
2018-02-22T05:37:44.752Z,13.48
2018-02-22T05:40:14.361Z,13.68
2018-02-22T05:42:44.689Z,13.43
2018-02-22T05:45:18.671Z,13.65
2018-02-22T05:47:51.604Z,14.80
2018-02-22T05:50:21.907Z,14.05
2018-02-22T05:52:52.392Z,14.70
2018-02-22T05:55:39.070Z,13.62
2018-02-22T05:58:12.170Z,15.15
2018-02-22T06:00:44.417Z,14.60
2018-02-22T06:03:15.758Z,14.70
2018-02-22T06:05:47.339Z,14.50
2018-02-22T06:08:18.427Z,13.35
2018-02-22T06:10:53.411Z,15.85
2018-02-22T06:13:30.748Z,14.52
2018-02-22T06:16:01.950Z,13.98
2018-02-22T06:18:33.078Z,15.18
2018-02-22T06:21:06.663Z,14.52
2018-02-22T06:23:38.266Z,16.30
2018-02-22T06:26:09.691Z,16.48
2018-02-22T06:28:43.829Z,14.60
2018-02-22T06:31:31.320Z,15.05
2018-02-22T06:34:10.342Z,14.87
2018-02-22T06:36:41.872Z,15.93
2018-02-22T06:39:13.362Z,15.27
2018-02-22T06:41:43.507Z,15.45
2018-02-22T06:44:36.215Z,15.18
2018-02-22T06:47:11.020Z,16.08
2018-02-22T06:49:42.314Z,16.25
2018-02-22T06:52:12.814Z,16.30
2018-02-22T06:54:44.557Z,15.00
2018-02-22T06:57:17.502Z,13.35
2018-02-22T06:59:47.835Z,15.68
2018-02-22T07:02:19.108Z,15.57
2018-02-22T07:05:34.660Z,16.75
2018-02-22T07:08:36.355Z,15.07
2018-02-22T07:11:06.821Z,15.35
2018-02-22T07:13:36.928Z,16.17
2018-02-22T07:16:06.957Z,16.92
2018-02-22T07:21:45.991Z,16.52
2018-02-22T07:24:16.523Z,15.70
2018-02-22T07:26:58.799Z,16.00
2018-02-22T07:29:57.560Z,15.07
2018-02-22T07:32:49.903Z,15.30
2018-02-22T07:35:22.374Z,15.75
2018-02-22T07:37:55.158Z,16.02
2018-02-22T07:40:26.427Z,18.25
2018-02-22T07:42:58.522Z,14.63
2018-02-22T07:45:40.624Z,15.73
2018-02-22T07:48:16.041Z,14.95
2018-02-22T07:50:50.831Z,14.20
2018-02-22T07:53:25.732Z,13.75
2018-02-22T07:56:13.120Z,13.45
2018-02-22T07:59:36.608Z,13.52
2018-02-22T08:02:46.663Z,14.93
2018-02-22T08:05:34.422Z,12.60
2018-02-22T08:08:43.015Z,15.02
2018-02-22T08:13:58.182Z,14.50
2018-02-22T08:16:47.515Z,13.62
2018-02-22T08:19:25.571Z,12.73
2018-02-22T08:21:58.291Z,12.95
2018-02-22T08:24:28.587Z,13.30
2018-02-22T08:26:59.639Z,12.70
2018-02-22T08:29:53.182Z,12.43
2018-02-22T08:32:37.753Z,13.05
2018-02-22T08:35:38.741Z,9.45
2018-02-22T08:38:11.750Z,9.13
2018-02-22T08:40:43.196Z,5.85
2018-02-22T08:43:36.438Z,8.68
2018-02-22T08:49:10.440Z,5.93
2018-02-22T08:51:54.363Z,7.07
2018-02-22T08:54:29.559Z,10.82
2018-02-22T08:57:00.754Z,6.03
2018-02-22T08:59:37.104Z,10.55
2018-02-22T09:09:19.476Z,5.72
2018-02-22T09:11:50.737Z,6.45
2018-02-22T09:15:15.567Z,6.78
2018-02-22T09:24:36.915Z,4.15
2018-02-22T09:27:09.189Z,4.80
2018-02-22T09:30:18.002Z,6.55
2018-02-22T09:33:10.892Z,4.80
2018-02-22T09:49:10.734Z,4.95
2018-02-22T09:55:13.136Z,2.83
2018-02-22T09:57:44.323Z,3.62
2018-02-22T10:00:17.061Z,4.22
2018-02-22T10:02:47.909Z,3.62
2018-02-22T10:05:48.622Z,5.68
2018-02-22T10:08:21.601Z,4.95
2018-02-22T10:10:55.209Z,4.00
2018-02-22T10:13:37.219Z,3.97
2018-02-22T10:16:24.224Z,5.55
2018-02-22T10:18:59.930Z,5.35
2018-02-22T10:22:01.946Z,3.83
2018-02-22T10:24:35.885Z,4.43
2018-02-22T10:27:08.140Z,3.28
2018-02-22T10:29:52.309Z,2.65
2018-02-22T10:32:44.069Z,6.37
2018-02-22T10:35:55.890Z,6.03
2018-02-22T10:39:37.813Z,3.33
2018-02-22T10:42:13.854Z,5.68
2018-02-22T10:50:43.936Z,6.12
2018-02-22T10:53:27.827Z,5.68
2018-02-22T11:03:48.871Z,3.83
2018-02-22T11:06:20.862Z,3.53
2018-02-22T11:09:01.883Z,4.10
2018-02-22T11:11:38.003Z,3.62
2018-02-22T11:14:27.070Z,3.67
2018-02-22T11:17:12.138Z,2.75
2018-02-22T11:19:56.846Z,3.70
2018-02-22T11:22:29.180Z,3.25
2018-02-22T11:28:54.680Z,3.90
2018-02-22T11:31:38.573Z,3.85
2018-02-22T11:34:46.851Z,3.97
2018-02-22T11:37:51.353Z,5.22
2018-02-22T11:40:26.072Z,3.33
2018-02-22T11:43:16.726Z,2.78
2018-02-22T11:46:16.698Z,3.30
2018-02-22T11:49:10.943Z,2.62
2018-02-22T11:51:46.882Z,3.17
2018-02-22T11:54:19.812Z,3.50
2018-02-22T11:57:20.117Z,2.75
2018-02-22T11:59:53.948Z,4.45
2018-02-22T12:02:26.050Z,3.20
2018-02-22T12:05:02.386Z,4.78
2018-02-22T12:07:40.265Z,3.60
2018-02-22T12:10:26.843Z,3.05
2018-02-22T12:13:11.033Z,3.87
2018-02-22T12:16:18.868Z,3.37
2018-02-22T12:22:30.009Z,4.00
2018-02-22T12:28:27.388Z,3.87
2018-02-22T12:31:39.642Z,4.35
2018-02-22T12:34:47.229Z,3.75
2018-02-22T12:40:58.739Z,3.60
2018-02-22T12:43:56.750Z,2.95
2018-02-22T12:46:30.053Z,4.87
2018-02-22T12:49:10.706Z,3.55
2018-02-22T12:52:13.417Z,3.35
2018-02-22T12:55:10.775Z,3.78
2018-02-22T12:58:30.938Z,4.45
2018-02-22T13:01:48.838Z,2.70
2018-02-22T13:04:21.408Z,2.87
2018-02-22T13:07:24.916Z,3.87
2018-02-22T13:13:33.075Z,3.17
2018-02-22T13:16:14.228Z,4.72
2018-02-22T13:19:11.074Z,4.68
2018-02-22T13:21:59.950Z,5.43
2018-02-22T13:24:46.536Z,4.90
2018-02-22T13:27:16.430Z,4.40
2018-02-22T13:34:08.905Z,3.97
2018-02-22T13:36:52.661Z,3.58
2018-02-22T13:39:53.380Z,6.28
2018-02-22T13:55:21.658Z,3.53
2018-02-22T13:58:09.705Z,3.97
2018-02-22T14:05:31.841Z,4.00
2018-02-22T14:12:18.944Z,4.47
2018-02-22T14:22:03.610Z,3.62
2018-02-22T14:24:40.674Z,3.33
2018-02-22T14:31:20.917Z,3.05
2018-02-22T14:55:26.015Z,4.10
2018-02-22T14:58:07.399Z,3.45
2018-02-22T15:01:48.032Z,3.72
2018-02-22T15:05:18.460Z,3.58
2018-02-22T15:15:42.066Z,3.72
2018-02-22T15:18:28.013Z,3.87
2018-02-22T15:24:30.846Z,5.32
2018-02-22T15:27:15.937Z,4.30
2018-02-22T15:39:18.882Z,4.05
2018-02-22T15:42:29.782Z,5.12
2018-02-22T15:45:35.689Z,4.87
2018-02-22T15:48:20.224Z,3.03
2018-02-22T16:03:56.446Z,3.08
2018-02-22T16:13:25.989Z,5.47
2018-02-22T16:16:19.763Z,4.50
2018-02-22T16:19:03.082Z,4.93
2018-02-22T16:21:55.175Z,3.78
2018-02-22T16:25:51.029Z,3.62
2018-02-22T16:28:26.726Z,3.75
2018-02-22T16:38:54.044Z,3.30
2018-02-22T16:41:34.115Z,5.25
2018-02-22T16:45:05.000Z,3.10
2018-02-22T16:47:45.471Z,4.28
2018-02-22T16:51:22.245Z,5.35
2018-02-22T17:12:56.291Z,2.80
2018-02-22T17:15:47.434Z,5.18
2018-02-22T17:26:07.174Z,4.75
2018-02-22T17:46:10.117Z,4.90
2018-02-22T17:48:43.388Z,3.00
2018-02-22T18:16:07.359Z,5.70
2018-02-22T18:18:46.477Z,6.05
2018-02-22T18:29:06.675Z,3.58
2018-02-22T18:33:01.499Z,3.47
2018-02-22T18:46:25.356Z,3.70
2018-02-22T18:49:02.585Z,2.25
2018-02-22T18:52:22.901Z,5.45
2018-02-22T18:55:05.720Z,5.78
2018-02-22T19:14:30.027Z,6.72
2018-02-22T19:17:05.773Z,4.95
2018-02-22T19:19:38.150Z,5.35
2018-02-22T19:35:51.132Z,5.40
2018-02-22T19:38:34.486Z,4.82
2018-02-22T19:41:08.986Z,6.45
2018-02-22T19:44:01.150Z,7.85
2018-02-22T19:46:48.401Z,6.35
2018-02-22T19:50:05.715Z,6.28
2018-02-22T19:53:10.842Z,7.12
2018-02-22T20:02:01.586Z,7.35
2018-02-22T20:04:55.186Z,6.80
2018-02-22T20:07:28.658Z,5.87
2018-02-22T20:12:54.523Z,7.25
2018-02-22T20:18:06.436Z,5.90
2018-02-22T20:27:26.424Z,6.03
2018-02-22T20:30:05.219Z,6.93
2018-02-22T20:32:36.783Z,4.90
2018-02-22T20:35:10.553Z,5.72
2018-02-22T20:38:08.308Z,6.97
2018-02-22T20:44:30.366Z,6.15
2018-02-22T20:47:14.191Z,6.50
2018-02-22T20:50:11.284Z,6.97
2018-02-22T20:57:17.221Z,6.15
2018-02-22T20:59:52.965Z,6.35
2018-02-22T21:16:08.714Z,6.50
2018-02-22T21:19:00.020Z,7.55
2018-02-22T21:21:40.429Z,6.40
2018-02-22T21:24:45.035Z,6.30
2018-02-22T21:27:29.712Z,6.62
2018-02-22T21:30:23.278Z,7.25
2018-02-22T21:42:18.034Z,6.65
2018-02-22T21:45:14.134Z,6.82
2018-02-22T21:47:50.622Z,6.20
2018-02-22T21:50:39.214Z,6.70
2018-02-22T21:53:58.903Z,6.30
2018-02-22T22:00:01.284Z,6.35
2018-02-22T22:02:34.895Z,6.55
2018-02-22T22:05:16.812Z,6.22
2018-02-22T22:08:18.521Z,6.05
2018-02-22T22:10:53.028Z,7.35
2018-02-22T22:13:42.388Z,6.82
2018-02-22T22:16:15.653Z,6.37
2018-02-22T22:19:01.636Z,6.03
2018-02-22T22:21:42.515Z,5.93
2018-02-22T22:24:18.810Z,6.45
2018-02-22T22:26:53.419Z,5.35
2018-02-22T22:29:23.476Z,6.35
2018-02-22T22:31:58.764Z,6.45
2018-02-22T22:34:30.655Z,6.18
2018-02-22T22:37:01.370Z,6.32
2018-02-22T22:39:37.740Z,5.72
2018-02-22T22:42:08.325Z,5.93
2018-02-22T22:44:38.973Z,6.05
2018-02-22T22:47:09.086Z,6.28
2018-02-22T22:49:51.983Z,5.82
2018-02-22T22:52:43.334Z,5.78
2018-02-22T22:55:13.400Z,6.22
2018-02-22T22:57:43.930Z,5.50
2018-02-22T23:00:19.579Z,5.60
2018-02-22T23:02:51.708Z,5.82
2018-02-22T23:09:00.101Z,5.47
2018-02-22T23:11:38.020Z,5.80
2018-02-22T23:14:11.196Z,5.82
2018-02-22T23:16:49.099Z,5.80
2018-02-22T23:19:19.308Z,5.47
2018-02-22T23:24:42.177Z,5.03
2018-02-22T23:27:15.129Z,5.37
2018-02-22T23:29:47.830Z,5.35
2018-02-22T23:32:23.040Z,5.30
2018-02-22T23:34:54.705Z,5.47
2018-02-22T23:37:27.081Z,5.03
2018-02-22T23:40:00.213Z,4.80
2018-02-22T23:42:33.137Z,5.05
2018-02-22T23:45:33.786Z,5.45
2018-02-22T23:48:05.477Z,4.60
2018-02-22T23:50:37.713Z,5.12
2018-02-22T23:53:13.718Z,4.97
2018-02-22T23:56:11.102Z,6.45
2018-02-22T23:59:08.071Z,5.75
